Time;durP1;ratioP1;P1;durP2;ratioP2;P2;SDS_P1;SDS_P2;PMS_P1;PMS_P2;Temp;Humidity;BMP_temperature;BMP_pressure;BME280_temperature;BME280_humidity;BME280_pressure;Samples;Min_cycle;Max_cycle;Signal;HPM_P1;HPM_P2
2021/09/07 00:01:58;;;;;;;8.18;5.10;;;15.20;99.90;;;14.01;97.38;101407.81;5023213;28;20025;-76
2021/09/07 00:04:29;;;;;;;9.18;4.65;;;16.00;99.90;;;14.00;97.17;101386.72;5018672;28;20072;-76
2021/09/07 00:06:57;;;;;;;12.55;4.43;;;15.10;99.90;;;13.94;97.64;101388.75;5040295;28;20053;-76
2021/09/07 00:09:26;;;;;;;8.23;5.07;;;15.10;99.90;;;13.95;97.65;101392.22;5060999;28;20378;-76
2021/09/07 00:11:53;;;;;;;10.25;5.00;;;15.10;99.90;;;13.93;97.77;101381.75;5048252;28;20426;-76
2021/09/07 00:14:19;;;;;;;12.10;5.40;;;15.10;99.90;;;13.92;97.34;101390.59;5050555;28;20465;-76
2021/09/07 00:16:45;;;;;;;7.95;4.65;;;15.10;99.90;;;13.87;97.98;101389.13;5008930;28;20408;-76
2021/09/07 00:19:12;;;;;;;10.93;4.90;;;15.10;99.90;;;13.81;98.31;101400.03;5022800;28;20589;-76
2021/09/07 00:21:38;;;;;;;9.82;5.03;;;15.00;99.90;;;13.78;98.15;101423.97;5046970;28;20036;-77
2021/09/07 00:24:04;;;;;;;8.73;5.20;;;15.00;99.90;;;13.70;98.14;101366.16;5054058;28;20047;-76
2021/09/07 00:26:30;;;;;;;11.73;5.82;;;14.90;99.90;;;13.64;98.55;101454.63;5024204;28;20029;-76
2021/09/07 00:28:56;;;;;;;13.73;5.47;;;14.80;99.90;;;13.58;98.98;101460.19;5039718;28;20044;-76
2021/09/07 00:31:22;;;;;;;8.13;5.50;;;14.70;99.90;;;13.55;99.91;101476.25;5040852;28;20111;-76
2021/09/07 00:33:49;;;;;;;14.95;6.30;;;;;;;13.47;100.00;101486.31;5053068;28;20036;-76
2021/09/07 00:36:15;;;;;;;10.60;5.93;;;14.70;99.90;;;13.47;100.00;101510.13;5048863;28;20033;-76
2021/09/07 00:38:41;;;;;;;13.68;7.00;;;14.70;99.90;;;13.45;100.00;101518.13;5014796;28;20036;-76
2021/09/07 00:41:07;;;;;;;14.20;7.45;;;14.70;99.90;;;13.46;100.00;101532.22;5049156;28;20538;-76
2021/09/07 00:43:33;;;;;;;10.98;7.43;;;14.70;99.90;;;13.48;100.00;101559.47;5050047;28;20496;-76
2021/09/07 00:45:59;;;;;;;17.67;8.63;;;14.70;99.90;;;13.49;100.00;101577.06;5039814;28;20024;-76
2021/09/07 00:48:25;;;;;;;17.67;8.90;;;14.70;99.90;;;13.50;100.00;101589.38;5039706;28;20032;-76
2021/09/07 00:50:51;;;;;;;15.68;8.85;;;14.70;99.90;;;13.50;100.00;101605.25;5048492;28;20028;-76
2021/09/07 00:53:17;;;;;;;16.50;8.52;;;14.70;99.90;;;13.51;100.00;101585.78;5033466;28;20028;-76
2021/09/07 00:55:47;;;;;;;15.80;8.38;;;14.70;99.90;;;13.50;100.00;101608.75;5050038;28;20033;-76
2021/09/07 00:58:16;;;;;;;17.10;9.23;;;14.60;99.90;;;13.43;100.00;101624.94;5044101;28;20500;-76
2021/09/07 01:00:45;;;;;;;20.33;9.85;;;14.60;99.90;;;13.39;100.00;101626.00;5047769;28;20049;-75
2021/09/07 01:03:11;;;;;;;19.73;10.52;;;14.60;99.90;;;13.41;100.00;101624.16;5033019;28;20024;-76
2021/09/07 01:05:37;;;;;;;18.33;9.90;;;14.60;99.90;;;13.42;100.00;101636.47;5061795;28;20021;-76
2021/09/07 01:08:05;;;;;;;20.15;11.15;;;14.60;99.90;;;13.44;100.00;101647.84;5041160;28;20387;-76
2021/09/07 01:10:31;;;;;;;22.08;11.95;;;14.60;99.90;;;13.46;100.00;101644.19;5042697;28;20416;-76
2021/09/07 01:12:57;;;;;;;25.15;12.32;;;14.60;99.90;;;13.48;100.00;101646.78;5050518;28;20017;-76
2021/09/07 01:15:23;;;;;;;28.02;12.10;;;14.60;99.90;;;13.46;100.00;101638.06;5032459;28;20036;-76
2021/09/07 01:17:49;;;;;;;29.15;13.30;;;14.60;99.90;;;13.49;100.00;101619.38;5057018;28;20116;-76
2021/09/07 01:20:15;;;;;;;29.92;14.50;;;14.60;99.90;;;13.46;100.00;101632.75;5040226;28;20037;-76
2021/09/07 01:22:41;;;;;;;23.73;13.70;;;14.60;99.90;;;13.46;100.00;101649.50;5040786;28;20052;-76
2021/09/07 01:25:08;;;;;;;29.08;14.05;;;14.60;99.90;;;13.45;100.00;101665.41;5027622;28;20058;-76
2021/09/07 01:27:35;;;;;;;32.65;16.23;;;14.60;99.90;;;13.47;100.00;101680.28;5008069;28;20033;-76
2021/09/07 01:30:01;;;;;;;29.83;16.20;;;14.60;99.90;;;13.46;100.00;101668.00;5039972;28;20028;-76
2021/09/07 01:32:27;;;;;;;33.33;16.35;;;14.60;99.90;;;13.45;100.00;101676.00;5042255;28;20021;-76
2021/09/07 01:34:54;;;;;;;28.25;15.13;;;14.60;99.90;;;13.44;100.00;101700.75;5044551;28;20086;-76
2021/09/07 01:37:19;;;;;;;31.50;15.85;;;14.60;99.90;;;13.38;100.00;101717.75;5059150;28;20028;-76
2021/09/07 01:39:46;;;;;;;35.67;17.33;;;14.60;99.90;;;13.40;100.00;101736.19;5054792;28;20040;-76
2021/09/07 01:42:12;;;;;;;32.70;18.17;;;14.60;99.90;;;13.37;100.00;101721.31;5047222;28;20045;-76
2021/09/07 01:44:43;;;;;;;37.72;19.38;;;14.50;99.90;;;13.37;100.00;101736.31;5062713;28;20024;-76
2021/09/07 01:47:10;;;;;;;33.78;17.83;;;14.50;99.90;;;13.33;100.00;101725.03;5051917;28;20021;-76
2021/09/07 01:49:38;;;;;;;36.38;19.63;;;14.60;99.90;;;13.33;100.00;101710.00;5050444;28;20029;-76
2021/09/07 01:52:15;;;;;;;38.65;19.60;;;14.50;99.90;;;13.33;100.00;101719.72;5059842;28;20075;-76
2021/09/07 01:54:47;;;;;;;41.10;20.17;;;14.60;99.90;;;13.36;100.00;101737.25;5031911;28;20033;-76
2021/09/07 01:57:14;;;;;;;36.00;19.05;;;14.60;99.90;;;13.36;100.00;101772.50;5020843;28;20037;-76
2021/09/07 01:59:40;;;;;;;38.40;19.40;;;14.70;99.90;;;13.42;100.00;101781.97;5039782;28;20048;-76
2021/09/07 02:02:06;;;;;;;34.97;19.10;;;14.70;99.90;;;13.41;100.00;101765.25;5034081;28;20021;-76
2021/09/07 02:04:32;;;;;;;36.63;19.67;;;14.60;99.90;;;13.37;100.00;101792.75;5046652;28;20039;-76
2021/09/07 02:06:58;;;;;;;35.60;18.17;;;14.60;99.90;;;13.34;100.00;101812.22;5027791;28;20081;-76
2021/09/07 02:09:26;;;;;;;36.67;20.27;;;14.60;99.90;;;13.34;100.00;101816.66;5024120;28;20025;-76
2021/09/07 02:11:52;;;;;;;38.83;19.90;;;14.60;99.90;;;13.31;100.00;101817.66;5035090;28;20028;-76
2021/09/07 02:14:18;;;;;;;40.90;22.60;;;14.50;99.90;;;13.31;100.00;101824.72;5049358;28;20031;-76
2021/09/07 02:16:44;;;;;;;37.47;21.02;;;14.50;99.90;;;13.31;100.00;101822.94;5026113;28;20547;-76
2021/09/07 02:19:10;;;;;;;41.10;21.60;;;14.50;99.90;;;13.29;100.00;101824.78;5051709;28;20647;-76
2021/09/07 02:21:36;;;;;;;44.47;22.33;;;14.50;99.90;;;13.30;100.00;101823.88;5026985;28;20033;-76
2021/09/07 02:24:02;;;;;;;48.60;23.48;;;14.50;99.90;;;13.29;100.00;101840.66;5042314;28;20383;-76
2021/09/07 02:26:28;;;;;;;39.45;21.05;;;14.50;99.90;;;13.27;100.00;101861.00;5052595;28;20584;-76
2021/09/07 02:28:54;;;;;;;47.08;22.42;;;14.50;99.90;;;13.25;100.00;101851.41;5024903;28;20017;-76
2021/09/07 02:31:20;;;;;;;38.55;21.00;;;14.50;99.90;;;13.21;100.00;101858.59;5051538;28;20043;-76
2021/09/07 02:33:46;;;;;;;41.35;21.02;;;14.40;99.90;;;13.17;100.00;101885.22;5026809;28;20038;-76
2021/09/07 02:36:12;;;;;;;39.25;20.15;;;14.30;99.90;;;13.13;100.00;101895.91;5023166;28;20031;-76
2021/09/07 02:38:39;;;;;;;44.53;21.67;;;;;;;13.13;100.00;101897.69;5027352;28;20049;-76
2021/09/07 02:41:04;;;;;;;51.88;22.00;;;14.40;99.90;;;13.14;100.00;101899.41;5053213;28;20025;-76
2021/09/07 02:43:30;;;;;;;52.05;21.80;;;14.40;99.90;;;13.17;100.00;101915.16;5015024;28;20041;-76
2021/09/07 02:45:56;;;;;;;43.72;22.00;;;14.40;99.90;;;13.16;100.00;101934.59;5019533;28;20039;-77
2021/09/07 02:48:23;;;;;;;51.75;20.90;;;14.40;99.90;;;13.17;100.00;101946.88;5049852;28;20032;-76
2021/09/07 02:50:49;;;;;;;46.17;20.58;;;14.40;99.90;;;13.16;100.00;101934.59;5032927;28;20037;-76
2021/09/07 02:53:15;;;;;;;44.42;22.35;;;14.40;99.90;;;13.14;100.00;101939.94;5034610;28;20025;-76
2021/09/07 02:55:41;;;;;;;40.33;21.23;;;14.40;99.90;;;13.15;100.00;101943.44;5046836;28;20020;-76
2021/09/07 02:58:09;;;;;;;46.17;22.13;;;14.40;99.90;;;13.14;100.00;101949.66;5058038;28;20040;-76
2021/09/07 03:00:44;;;;;;;46.22;22.02;;;14.40;99.90;;;13.16;100.00;101961.03;5050383;28;20645;-76
2021/09/07 03:03:10;;;;;;;43.47;22.17;;;14.40;99.90;;;13.14;100.00;101979.59;5052995;28;20032;-76
2021/09/07 03:05:37;;;;;;;43.40;22.60;;;14.40;99.90;;;13.16;100.00;101976.91;5023245;28;20028;-76
2021/09/07 03:08:05;;;;;;;45.78;22.30;;;14.40;99.90;;;13.15;100.00;102012.19;5043952;28;20107;-76
2021/09/07 03:10:33;;;;;;;45.97;23.60;;;14.40;99.90;;;13.14;100.00;102015.78;5039823;28;20021;-76
2021/09/07 03:12:59;;;;;;;51.78;24.27;;;14.40;99.90;;;13.09;100.00;102039.75;5042939;28;20236;-76
2021/09/07 03:15:25;;;;;;;52.38;24.52;;;14.40;99.90;;;13.08;100.00;102061.81;5042945;28;20033;-76
2021/09/07 03:17:51;;;;;;;50.20;24.73;;;14.40;99.90;;;13.12;100.00;102073.16;5048689;28;20040;-76
2021/09/07 03:20:18;;;;;;;49.83;24.58;;;14.30;99.90;;;13.10;100.00;102075.84;5043198;28;20012;-76
2021/09/07 03:22:44;;;;;;;58.58;26.30;;;14.30;99.90;;;13.11;100.00;102097.88;5058206;28;20024;-76
2021/09/07 03:25:10;;;;;;;55.47;26.70;;;14.30;99.90;;;13.12;100.00;102110.16;5040792;28;20048;-76
2021/09/07 03:27:36;;;;;;;61.13;26.95;;;14.30;99.90;;;13.10;100.00;102122.59;5041087;28;20026;-76
2021/09/07 03:30:03;;;;;;;54.25;26.60;;;14.30;99.90;;;13.10;100.00;102122.59;5049780;28;20024;-76
2021/09/07 03:32:29;;;;;;;53.10;27.15;;;14.30;99.90;;;13.12;100.00;102149.84;5025188;28;20058;-76
2021/09/07 03:34:55;;;;;;;57.65;26.85;;;14.30;99.90;;;13.13;100.00;102157.72;5042331;28;20082;-76
2021/09/07 03:37:21;;;;;;;54.47;25.23;;;14.40;99.90;;;13.16;100.00;102208.78;5048069;28;20024;-76
2021/09/07 03:39:47;;;;;;;55.65;26.02;;;14.40;99.90;;;13.12;100.00;102208.88;5046375;28;20032;-77
2021/09/07 03:42:13;;;;;;;54.35;26.58;;;14.30;99.90;;;13.09;100.00;102198.41;5033228;28;20021;-76
2021/09/07 03:44:39;;;;;;;57.30;26.70;;;14.40;99.90;;;13.10;100.00;102233.66;5033953;28;20033;-76
2021/09/07 03:47:05;;;;;;;61.70;27.73;;;14.30;99.90;;;13.13;100.00;102257.34;5066904;28;20036;-76
2021/09/07 03:49:31;;;;;;;59.35;27.92;;;14.40;99.90;;;13.14;100.00;102259.09;5041369;28;20120;-76
2021/09/07 03:51:57;;;;;;;59.55;29.45;;;14.30;99.90;;;13.11;100.00;102240.69;5050931;28;20029;-76
2021/09/07 03:54:23;;;;;;;66.43;31.73;;;14.40;99.90;;;13.16;100.00;102286.34;5030658;28;20047;-76
2021/09/07 03:56:49;;;;;;;68.65;30.15;;;14.30;99.90;;;13.16;100.00;102301.34;5031720;28;20027;-76
2021/09/07 03:59:16;;;;;;;67.53;31.55;;;14.40;99.90;;;13.19;100.00;102303.88;5048672;28;20561;-76
2021/09/07 04:01:44;;;;;;;74.47;33.00;;;14.40;99.90;;;13.22;100.00;102298.53;5023717;28;20499;-76
2021/09/07 04:04:10;;;;;;;73.95;32.90;;;14.40;99.90;;;13.21;100.00;102347.03;5049959;28;20037;-76
2021/09/07 04:06:37;;;;;;;77.05;34.80;;;14.40;99.90;;;13.25;100.00;102348.66;5041768;28;20035;-76
2021/09/07 04:09:03;;;;;;;68.32;32.10;;;14.50;99.90;;;13.30;100.00;102370.56;5066821;28;20051;-76
2021/09/07 04:11:32;;;;;;;76.68;34.72;;;14.50;99.90;;;13.29;100.00;102392.66;5050342;28;20044;-76
2021/09/07 04:13:58;;;;;;;74.95;32.78;;;14.50;99.90;;;13.27;100.00;102389.16;5050542;28;20365;-76
2021/09/07 04:16:24;;;;;;;72.78;32.92;;;14.50;99.90;;;13.19;100.00;102378.81;5021078;28;20112;-76
2021/09/07 04:18:50;;;;;;;75.32;34.22;;;14.40;99.90;;;13.19;100.00;102407.91;5006095;28;20036;-76
2021/09/07 04:21:17;;;;;;;75.78;33.75;;;14.40;99.90;;;13.20;100.00;102429.94;5063727;28;20032;-76
2021/09/07 04:23:43;;;;;;;84.50;36.13;;;14.40;99.90;;;13.24;100.00;102391.88;5039760;28;20039;-76
2021/09/07 04:26:09;;;;;;;84.13;37.55;;;14.40;99.90;;;13.29;100.00;102448.22;5031660;28;20075;-75
2021/09/07 04:28:35;;;;;;;84.38;39.25;;;14.40;99.90;;;13.27;100.00;102435.00;5032959;28;20373;-76
2021/09/07 04:31:01;;;;;;;83.15;37.47;;;14.50;99.90;;;13.25;100.00;102425.38;5031312;28;20456;-76
2021/09/07 04:33:27;;;;;;;86.47;38.60;;;14.50;99.90;;;13.27;100.00;102447.34;5066825;28;20036;-77
2021/09/07 04:35:53;;;;;;;87.07;37.72;;;14.50;99.90;;;13.31;100.00;102481.63;5016035;28;20062;-76
2021/09/07 04:38:19;;;;;;;92.10;37.38;;;14.50;99.90;;;13.37;100.00;102514.09;5042226;28;20465;-76
2021/09/07 04:40:45;;;;;;;86.82;38.20;;;14.50;99.90;;;13.42;100.00;102528.94;5039814;28;20082;-76
2021/09/07 04:43:11;;;;;;;80.40;37.47;;;14.70;99.90;;;13.50;100.00;102529.59;5049138;28;20025;-76
2021/09/07 04:45:38;;;;;;;85.95;37.40;;;14.80;99.90;;;13.49;100.00;102498.72;5031876;28;20035;-76
2021/09/07 04:48:04;;;;;;;91.60;36.00;;;14.70;99.90;;;13.49;100.00;102484.63;5045760;28;20397;-76
2021/09/07 04:50:32;;;;;;;78.32;35.38;;;14.70;99.90;;;13.52;100.00;102533.06;5032613;28;20032;-76
2021/09/07 04:52:58;;;;;;;78.60;35.10;;;14.80;99.90;;;13.54;100.00;102515.34;5019833;28;20431;-76
2021/09/07 04:55:24;;;;;;;75.95;33.47;;;14.80;99.90;;;13.55;100.00;102529.44;5036152;28;20033;-76
2021/09/07 04:57:50;;;;;;;70.82;32.15;;;14.80;99.90;;;13.56;100.00;102427.94;5048687;28;20046;-76
2021/09/07 05:00:17;;;;;;;70.80;32.15;;;14.70;99.90;;;13.56;100.00;102459.69;5051330;28;20475;-76
2021/09/07 05:02:43;;;;;;;78.28;34.63;;;14.80;99.90;;;13.61;100.00;102545.13;5047005;28;20051;-76
2021/09/07 05:05:10;;;;;;;74.97;34.83;;;14.80;99.90;;;13.65;100.00;102541.50;5039588;28;20476;-76
2021/09/07 05:07:36;;;;;;;76.60;33.22;;;14.80;99.90;;;13.69;100.00;102584.59;5041115;28;20561;-76
2021/09/07 05:10:03;;;;;;;72.45;32.20;;;14.90;99.90;;;13.77;100.00;102582.59;5034221;28;20377;-76
2021/09/07 05:12:29;;;;;;;76.28;32.83;;;15.00;99.90;;;13.78;100.00;102633.75;5044470;28;20044;-76
2021/09/07 05:14:55;;;;;;;70.97;32.00;;;15.00;99.90;;;13.81;100.00;102645.13;5029019;28;22185;-76
2021/09/07 05:17:22;;;;;;;71.25;31.27;;;15.00;99.90;;;13.86;100.00;102700.59;5017342;28;20017;-76
2021/09/07 05:19:48;;;;;;;72.50;32.72;;;15.10;99.90;;;13.89;100.00;102714.63;5043927;28;20049;-76
2021/09/07 05:22:14;;;;;;;74.88;32.50;;;15.10;99.90;;;13.95;100.00;102755.94;5069993;28;20048;-76
2021/09/07 05:24:40;;;;;;;70.35;30.70;;;15.20;99.90;;;14.02;100.00;102757.53;5043485;28;20032;-77
2021/09/07 05:27:06;;;;;;;70.60;30.63;;;15.10;99.90;;;14.10;100.00;102792.63;5028017;28;20562;-76
2021/09/07 05:29:33;;;;;;;72.20;32.40;;;15.30;99.90;;;14.12;100.00;102769.59;5052564;28;20036;-76
2021/09/07 05:31:58;;;;;;;61.95;28.63;;;15.30;99.90;;;14.16;100.00;102800.34;5020655;28;20442;-76
2021/09/07 05:34:25;;;;;;;62.40;29.42;;;15.30;99.90;;;14.18;100.00;102770.31;5027802;28;20035;-76
2021/09/07 05:36:51;;;;;;;58.97;28.33;;;15.40;99.90;;;14.22;100.00;102811.72;5053918;28;20086;-76
2021/09/07 05:39:17;;;;;;;58.47;28.27;;;15.40;99.90;;;14.25;100.00;102827.50;5027040;28;20565;-76
2021/09/07 05:41:43;;;;;;;64.90;30.27;;;15.50;99.90;;;14.29;100.00;102829.16;5041545;28;20404;-77
2021/09/07 05:44:10;;;;;;;59.15;28.83;;;15.50;99.90;;;14.33;100.00;102809.63;5056041;28;20029;-76
2021/09/07 05:46:35;;;;;;;59.65;29.30;;;15.60;99.90;;;14.41;100.00;102834.13;5040684;28;20028;-76
2021/09/07 05:49:02;;;;;;;61.78;29.88;;;15.60;99.90;;;14.45;100.00;102818.97;5043229;28;20036;-77
2021/09/07 05:51:28;;;;;;;63.88;30.17;;;15.70;99.90;;;14.46;100.00;102787.13;5035830;28;20024;-76
2021/09/07 05:53:53;;;;;;;66.38;30.55;;;15.70;99.90;;;14.53;100.00;102820.47;5045562;28;20104;-76
2021/09/07 05:56:20;;;;;;;60.45;29.05;;;15.70;99.90;;;14.53;100.00;102857.59;5024965;28;20046;-76
2021/09/07 05:58:46;;;;;;;65.57;30.20;;;15.80;99.90;;;14.59;100.00;102834.50;5048461;28;20120;-76
2021/09/07 06:01:12;;;;;;;71.78;30.75;;;15.80;99.90;;;14.62;100.00;102858.28;5034008;28;20037;-76
2021/09/07 06:03:38;;;;;;;67.45;31.33;;;15.80;99.90;;;14.61;100.00;102877.75;5008691;28;20541;-76
2021/09/07 06:06:04;;;;;;;70.32;31.00;;;15.90;99.90;;;14.66;100.00;102934.16;5050139;28;20020;-76
2021/09/07 06:08:30;;;;;;;66.78;30.88;;;15.90;99.90;;;14.71;100.00;102937.56;5042959;28;20046;-76
2021/09/07 06:10:57;;;;;;;59.00;29.52;;;15.90;99.90;;;14.74;100.00;102990.50;5052467;28;20094;-76
2021/09/07 06:13:23;;;;;;;63.38;28.80;;;16.00;99.90;;;14.85;100.00;102999.03;5036250;28;20107;-76
2021/09/07 06:15:49;;;;;;;63.28;30.67;;;16.00;99.90;;;14.87;100.00;103029.03;5043894;28;20027;-76
2021/09/07 06:18:16;;;;;;;66.53;29.70;;;16.00;99.90;;;14.83;100.00;103032.69;5056132;28;20048;-77
2021/09/07 06:20:42;;;;;;;67.63;29.25;;;16.10;99.90;;;14.93;100.00;103018.25;5034525;28;20388;-76
2021/09/07 06:23:08;;;;;;;69.70;30.13;;;16.10;99.90;;;15.02;100.00;103066.66;5054544;28;20045;-77
2021/09/07 06:25:34;;;;;;;61.50;29.60;;;16.20;99.90;;;15.06;100.00;103044.44;5035109;28;20036;-77
2021/09/07 06:28:00;;;;;;;55.05;27.65;;;16.30;99.90;;;15.20;100.00;103083.84;5033221;28;20028;-77
2021/09/07 06:30:26;;;;;;;60.03;27.48;;;16.30;99.90;;;15.22;100.00;103069.59;5046227;28;20094;-77
2021/09/07 06:32:52;;;;;;;60.25;28.05;;;16.40;99.90;;;15.28;100.00;103087.16;5033585;28;20823;-77
2021/09/07 06:35:18;;;;;;;58.88;27.65;;;16.40;99.90;;;15.26;100.00;103079.22;5052454;28;20108;-78
2021/09/07 06:37:44;;;;;;;52.95;26.65;;;16.50;99.90;;;15.41;100.00;103173.47;5021713;28;20030;-77
2021/09/07 06:40:11;;;;;;;51.97;25.63;;;16.60;99.90;;;15.56;100.00;103021.69;5028737;28;20404;-77
2021/09/07 06:42:37;;;;;;;60.03;27.05;;;16.70;99.90;;;15.51;100.00;102990.91;5042236;28;20161;-77
2021/09/07 06:45:04;;;;;;;56.15;26.00;;;16.70;99.90;;;15.60;100.00;103078.22;5007168;28;20462;-77
2021/09/07 06:47:33;;;;;;;48.95;23.90;;;16.90;99.90;;;15.72;100.00;103125.69;5034965;28;20475;-79
2021/09/07 06:50:02;;;;;;;50.05;24.65;;;16.90;99.90;;;15.71;100.00;102683.06;5025091;28;20031;-77
2021/09/07 06:52:29;;;;;;;52.83;24.50;;;16.90;99.90;;;15.83;100.00;102707.44;5057982;28;20063;-77
2021/09/07 06:54:56;;;;;;;47.08;22.55;;;17.00;99.90;;;15.78;100.00;102735.03;5025644;28;20434;-77
2021/09/07 06:57:22;;;;;;;45.42;22.48;;;17.10;99.90;;;15.87;100.00;102873.75;5052078;28;21675;-77
2021/09/07 06:59:49;;;;;;;46.78;20.63;;;17.10;99.90;;;15.85;100.00;102546.22;5040900;28;21210;-77
2021/09/07 07:02:15;;;;;;;39.33;20.85;;;17.10;99.90;;;15.96;100.00;102717.56;5050730;28;20059;-77
2021/09/07 07:04:41;;;;;;;41.10;19.77;;;17.30;99.90;;;16.14;100.00;102591.06;5024106;28;20017;-77
2021/09/07 07:07:07;;;;;;;36.33;18.67;;;17.40;99.90;;;16.24;100.00;102540.19;5039062;28;20299;-77
2021/09/07 07:09:33;;;;;;;42.65;20.27;;;17.50;99.90;;;16.31;100.00;102549.66;5032976;28;20032;-76
2021/09/07 07:11:59;;;;;;;34.88;17.85;;;17.70;99.90;;;16.54;100.00;102504.34;5053271;28;20025;-77
2021/09/07 07:14:27;;;;;;;35.17;17.73;;;18.00;99.90;;;16.95;99.93;102506.13;5025677;28;20041;-77
2021/09/07 07:16:53;;;;;;;32.25;17.73;;;18.50;99.90;;;18.02;95.68;102577.50;5050925;28;20032;-77
2021/09/07 07:19:20;;;;;;;32.58;16.35;;;19.40;99.90;;;19.19;88.08;102627.63;5024762;28;20041;-77
2021/09/07 07:21:47;;;;;;;25.92;14.57;;;20.70;99.90;;;20.11;81.53;102649.34;5041872;28;20033;-77
2021/09/07 07:24:16;;;;;;;25.70;13.75;;;21.20;99.90;;;20.63;80.81;102691.00;5042001;28;20412;-77
2021/09/07 07:26:44;;;;;;;21.35;13.10;;;21.60;99.90;;;20.44;79.01;102603.72;5050972;28;20021;-77
2021/09/07 07:29:12;;;;;;;21.45;12.90;;;21.80;99.90;;;20.98;77.22;102615.78;5032143;28;20025;-77
2021/09/07 07:31:40;;;;;;;24.90;12.35;;;22.20;99.90;;;21.11;74.97;102587.28;5040099;28;20025;-78
2021/09/07 07:34:06;;;;;;;19.80;11.57;;;22.70;99.90;;;21.64;72.20;102600.94;5033815;28;20021;-77
2021/09/07 07:36:33;;;;;;;23.23;12.18;;;;;;;22.11;69.72;102618.47;5053763;28;20053;-77
2021/09/07 07:39:04;;;;;;;22.92;10.65;;;23.40;99.90;;;21.87;68.68;102549.38;5033902;28;20231;-78
2021/09/07 07:41:31;;;;;;;21.58;11.20;;;23.60;99.90;;;22.82;67.49;102635.25;5027964;28;20037;-77
2021/09/07 07:43:57;;;;;;;19.08;10.65;;;23.80;99.90;;;22.63;67.03;102585.47;5041568;28;20036;-78
2021/09/07 07:46:23;;;;;;;24.05;11.30;;;24.20;99.90;;;23.21;66.13;102611.97;5036437;28;20028;-77
2021/09/07 07:48:49;;;;;;;19.70;11.27;;;24.00;99.90;;;22.48;66.66;102525.66;5051212;28;20043;-77
2021/09/07 07:51:15;;;;;;;17.92;10.23;;;24.20;99.90;;;23.55;65.06;102578.16;5040438;28;20021;-76
2021/09/07 07:53:41;;;;;;;20.50;11.73;;;24.70;99.90;;;23.20;64.72;102502.78;5051302;28;20032;-76
2021/09/07 07:56:08;;;;;;;19.25;11.35;;;24.60;99.90;;;23.77;62.85;102565.88;5033021;28;20082;-78
2021/09/07 07:58:36;;;;;;;19.42;10.40;;;25.00;99.90;;;24.04;62.26;102536.91;5041918;28;20040;-79
2021/09/07 08:01:03;;;;;;;18.50;10.77;;;25.30;99.90;;;23.90;62.62;102496.72;5061651;28;20361;-76
2021/09/07 08:03:29;;;;;;;23.25;12.90;;;24.50;99.90;;;22.78;65.53;103657.00;5051205;28;20437;-76
2021/09/07 08:05:55;;;;;;;20.33;12.48;;;24.30;99.90;;;22.54;67.52;102757.91;5048984;28;20020;-76
2021/09/07 08:08:21;;;;;;;22.27;13.50;;;23.90;99.90;;;22.75;67.83;102682.28;5042019;28;20021;-76
2021/09/07 08:10:49;;;;;;;23.90;13.27;;;24.40;99.90;;;23.30;65.74;102563.81;5042154;28;20028;-76
2021/09/07 08:13:15;;;;;;;25.77;13.30;;;24.60;99.90;;;24.20;62.04;102533.91;5038244;28;20056;-77
2021/09/07 08:15:41;;;;;;;22.52;13.00;;;25.10;99.90;;;23.90;62.89;102477.91;5056123;28;20032;-76
2021/09/07 08:18:07;;;;;;;21.92;13.40;;;25.00;99.90;;;23.76;62.10;102422.47;5031477;28;20541;-76
2021/09/07 08:20:34;;;;;;;22.25;12.75;;;25.70;99.90;;;25.71;59.33;102501.28;5030895;28;20473;-76
2021/09/07 08:23:02;;;;;;;22.92;12.43;;;26.40;99.90;;;26.23;55.49;102509.56;5022668;28;20025;-76
2021/09/07 08:25:29;;;;;;;22.77;12.52;;;26.40;99.90;;;26.55;53.86;102522.16;5047267;28;20080;-76
2021/09/07 08:27:55;;;;;;;21.67;12.65;;;26.40;99.90;;;25.82;56.28;102408.66;5023962;28;20024;-77
2021/09/07 08:30:22;;;;;;;19.23;11.68;;;26.30;99.90;;;25.53;59.36;102425.47;5039789;28;20025;-77
2021/09/07 08:32:48;;;;;;;22.25;12.20;;;26.20;99.90;;;26.28;55.90;102418.22;5033807;28;20024;-76
2021/09/07 08:35:14;;;;;;;21.63;12.63;;;26.10;99.90;;;24.68;59.82;102304.88;5052610;28;20039;-76
2021/09/07 08:37:42;;;;;;;16.55;10.27;;;25.40;99.90;;;23.97;61.94;102274.69;5049223;28;20027;-77
2021/09/07 08:40:10;;;;;;;19.25;8.50;;;25.10;99.90;;;23.97;61.01;102271.16;5063845;28;20049;-77
2021/09/07 08:42:37;;;;;;;21.27;10.43;;;24.70;99.90;;;22.29;64.49;102145.06;5037365;28;20025;-76
2021/09/07 08:45:08;;;;;;;16.75;9.15;;;24.00;99.90;;;21.82;65.85;102146.66;5007331;28;20339;-76
2021/09/07 08:47:34;;;;;;;17.63;9.02;;;24.20;99.90;;;23.71;64.52;102292.84;5054626;28;20488;-76
2021/09/07 08:50:02;;;;;;;17.25;9.18;;;24.10;99.90;;;23.12;64.62;102232.81;5041158;28;20028;-76
2021/09/07 08:52:28;;;;;;;16.58;9.35;;;24.40;99.90;;;23.68;61.18;102250.06;5048533;28;20040;-76
2021/09/07 08:54:54;;;;;;;18.00;9.20;;;24.70;99.90;;;23.94;61.19;102250.72;5048703;28;20097;-76
2021/09/07 08:57:20;;;;;;;20.77;8.77;;;24.80;99.90;;;22.72;65.65;102159.75;5029528;28;20380;-76
2021/09/07 09:00:08;;;;;;;18.88;8.60;;;24.60;99.90;;;23.22;64.17;102214.19;5031009;28;20033;-76
2021/09/07 09:02:55;;;;;;;16.65;8.07;;;24.60;99.90;;;23.31;61.86;102218.00;4992590;28;20500;-77
2021/09/07 09:05:32;;;;;;;15.15;8.23;;;24.70;99.90;;;23.42;61.67;102192.97;5006361;28;20048;-76
2021/09/07 09:08:16;;;;;;;15.43;7.70;;;24.70;99.90;;;23.27;62.60;102185.09;5002866;28;20127;-76
2021/09/07 09:11:19;;;;;;;13.75;7.20;;;24.60;99.90;;;22.75;62.77;102138.06;5011302;28;24929;-76
2021/09/07 09:13:50;;;;;;;10.00;5.85;;;24.40;99.90;;;23.03;63.78;102179.81;5016363;28;20052;-75
2021/09/07 09:16:18;;;;;;;13.02;6.72;;;24.40;99.90;;;22.63;63.54;102112.97;5012916;28;20055;-76
2021/09/07 09:19:05;;;;;;;14.75;6.53;;;24.00;99.90;;;22.62;63.26;102123.84;5004307;28;20564;-76
2021/09/07 09:21:32;;;;;;;15.65;6.35;;;24.10;99.90;;;22.75;61.95;102129.16;4997026;28;20087;-77
2021/09/07 09:24:22;;;;;;;11.65;5.95;;;24.10;99.90;;;22.17;62.97;102076.16;5012285;28;20043;-76
2021/09/07 09:27:04;;;;;;;12.50;6.28;;;23.80;99.90;;;22.17;66.54;102102.13;5003636;28;20055;-76
2021/09/07 09:29:41;;;;;;;11.57;5.80;;;23.60;99.90;;;22.19;63.75;102074.22;5000934;28;20041;-76
2021/09/07 09:32:13;;;;;;;14.52;5.45;;;23.20;99.90;;;21.84;65.72;102084.88;5005658;28;20515;-77
2021/09/07 09:35:09;;;;;;;9.15;5.35;;;23.20;99.90;;;21.62;63.28;102040.88;5022524;28;20044;-76
2021/09/07 09:37:54;;;;;;;14.45;5.53;;;22.80;99.90;;;21.63;67.02;102098.84;5025623;28;20025;-76
2021/09/07 09:40:24;;;;;;;16.10;5.28;;;22.70;99.90;;;21.55;66.89;102081.63;5024138;28;20037;-76
2021/09/07 09:42:54;;;;;;;13.93;5.20;;;22.80;99.90;;;21.80;63.43;102094.97;4998300;28;20046;-76
2021/09/07 09:45:31;;;;;;;7.13;4.22;;;23.10;99.90;;;22.49;62.57;102102.44;5010520;28;20040;-76
2021/09/07 09:47:59;;;;;;;11.18;4.88;;;23.50;99.90;;;22.43;60.54;102087.66;4999499;28;20032;-76
2021/09/07 09:50:28;;;;;;;8.05;4.38;;;23.50;99.90;;;21.81;61.06;102023.44;5008764;28;20554;-76
2021/09/07 09:53:29;;;;;;;11.45;4.70;;;23.40;99.90;;;22.34;62.61;102079.47;5014096;28;20064;-75
2021/09/07 09:55:56;;;;;;;11.05;5.22;;;23.20;99.90;;;22.06;61.02;102068.91;5020739;28;20068;-76
2021/09/07 09:59:02;;;;;;;11.27;4.53;;;22.90;99.90;;;21.43;66.02;102054.75;5019590;28;20033;-76
2021/09/07 10:01:29;;;;;;;8.18;4.50;;;23.10;99.90;;;22.23;59.82;102065.00;5023906;28;20073;-77